Terminal Aerodrome Forecast
Issued by NWS Mt. Holly, NJ

Home | Current Version | Previous Version | Text Only | Print | Product List | Glossary On
Versions: 1 2 3 4 5 6 7 8 9 10 11 12 13 14 15 16 17 18 19 20 21 22 23
661
FTUS41 KPHI 231737
TAFRDG
TAF
KRDG 231737Z 2318/2418 VRB03KT P6SM VCSH BKN035
     FM232300 13007KT P6SM VCTS BKN040CB
      TEMPO 2400/2403 4SM TSRA OVC025CB
     FM240300 11007KT 4SM -SHRA OVC015 PROB30 2403/2409 4SM TSRA
      OVC015CB
     FM240900 VRB04KT 4SM -SHRA OVC010
     FM241200 32004KT 4SM BR OVC010
     FM241500 30005KT P6SM BKN025
     FM241700 31005KT P6SM SCT050=

USA.gov is the U.S. government's official web portal to all federal, state and local government web resources and services.